createdAt,value
2023-02-12T00:00:31.196Z,21.90
2023-02-12T00:03:01.278Z,19.07
2023-02-12T00:05:34.366Z,19.83
2023-02-12T00:08:07.765Z,18.67
2023-02-12T00:10:43.074Z,19.47
2023-02-12T00:13:15.015Z,19.20
2023-02-12T00:15:46.573Z,18.73
2023-02-12T00:18:16.872Z,20.63
2023-02-12T00:20:49.486Z,20.43
2023-02-12T00:23:19.644Z,19.33
2023-02-12T00:25:49.756Z,20.70
2023-02-12T00:28:19.945Z,19.80
2023-02-12T00:30:52.577Z,20.00
2023-02-12T00:33:22.674Z,18.97
2023-02-12T00:36:01.407Z,19.17
2023-02-12T00:38:31.597Z,19.63
2023-02-12T00:41:01.667Z,19.83
2023-02-12T00:43:31.738Z,20.13
2023-02-12T00:46:01.880Z,20.83
2023-02-12T00:48:32.101Z,20.77
2023-02-12T00:51:05.251Z,20.20
2023-02-12T00:53:36.945Z,21.37
2023-02-12T00:56:07.797Z,21.63
2023-02-12T00:58:38.067Z,22.73
2023-02-12T01:01:08.505Z,22.37
2023-02-12T01:03:41.709Z,21.97
2023-02-12T01:06:21.815Z,23.03
2023-02-12T01:08:54.299Z,23.17
2023-02-12T01:11:24.605Z,20.50
2023-02-12T01:13:54.732Z,20.87
2023-02-12T01:16:27.608Z,19.50
2023-02-12T01:18:58.393Z,21.23
2023-02-12T01:21:34.214Z,22.27
2023-02-12T01:24:05.386Z,21.77
2023-02-12T01:26:36.268Z,21.80
2023-02-12T01:29:12.508Z,21.80
2023-02-12T01:31:43.374Z,21.43
2023-02-12T01:34:15.309Z,26.30
2023-02-12T01:36:47.949Z,22.80
2023-02-12T01:39:18.092Z,23.77
2023-02-12T01:41:48.966Z,21.90
2023-02-12T01:44:22.463Z,22.33
2023-02-12T01:46:59.036Z,22.40
2023-02-12T01:49:36.035Z,22.80
2023-02-12T01:52:16.582Z,22.93
2023-02-12T01:54:49.435Z,24.27
2023-02-12T01:57:21.406Z,26.90
2023-02-12T01:59:56.170Z,24.33
2023-02-12T02:02:26.904Z,26.03
2023-02-12T02:05:04.338Z,24.63
2023-02-12T02:07:37.265Z,22.73
2023-02-12T02:10:09.010Z,21.37
2023-02-12T02:12:52.885Z,22.70
2023-02-12T02:15:23.370Z,21.27
2023-02-12T02:18:00.129Z,21.77
2023-02-12T02:21:20.368Z,21.90
2023-02-12T02:24:51.115Z,21.77
2023-02-12T02:27:43.406Z,21.87
2023-02-12T02:30:37.353Z,23.23
2023-02-12T02:33:40.241Z,22.97
2023-02-12T02:36:50.820Z,21.47
2023-02-12T02:39:41.493Z,21.00
2023-02-12T02:42:20.640Z,20.80
2023-02-12T02:44:57.653Z,20.67
2023-02-12T02:47:40.947Z,21.63
2023-02-12T02:50:17.524Z,21.03
2023-02-12T02:52:55.686Z,21.37
2023-02-12T02:55:31.508Z,20.40
2023-02-12T02:58:08.664Z,21.27
2023-02-12T03:00:47.349Z,21.97
2023-02-12T03:03:31.350Z,20.73
2023-02-12T03:06:08.221Z,21.47
2023-02-12T03:08:44.054Z,21.37
2023-02-12T03:11:20.998Z,19.13
2023-02-12T03:14:00.506Z,20.03
2023-02-12T03:16:34.502Z,19.00
2023-02-12T03:19:14.884Z,20.03
2023-02-12T03:21:51.438Z,20.90
2023-02-12T03:24:31.754Z,19.53
2023-02-12T03:27:11.697Z,22.43
2023-02-12T03:29:42.211Z,21.63
2023-02-12T03:32:31.818Z,22.27
2023-02-12T03:35:28.060Z,22.93
2023-02-12T03:38:10.458Z,21.73
2023-02-12T03:40:48.404Z,20.87
2023-02-12T03:43:30.367Z,22.37
2023-02-12T03:46:09.203Z,21.87
2023-02-12T03:48:54.827Z,21.57
2023-02-12T03:51:35.686Z,21.27
2023-02-12T03:54:10.621Z,21.37
2023-02-12T03:56:49.210Z,22.10
2023-02-12T03:59:21.344Z,22.10
2023-02-12T04:01:56.901Z,22.27
2023-02-12T04:04:29.260Z,21.70
2023-02-12T04:07:05.629Z,22.93
2023-02-12T04:09:35.962Z,23.40
2023-02-12T04:12:36.424Z,22.67
2023-02-12T04:15:27.384Z,22.57
2023-02-12T04:18:10.497Z,23.10
2023-02-12T04:20:56.080Z,23.27
2023-02-12T04:23:48.938Z,21.57
2023-02-12T04:26:32.231Z,23.10
2023-02-12T04:29:20.552Z,21.73
2023-02-12T04:31:59.061Z,21.67
2023-02-12T04:34:41.397Z,21.30
2023-02-12T04:37:19.794Z,21.03
2023-02-12T04:39:56.190Z,21.27
2023-02-12T04:42:26.471Z,20.60
2023-02-12T04:44:56.623Z,20.27
2023-02-12T04:47:26.669Z,20.67
2023-02-12T04:49:57.011Z,20.80
2023-02-12T04:52:29.077Z,21.53
2023-02-12T04:55:01.945Z,23.73
2023-02-12T04:57:32.167Z,22.13
2023-02-12T05:00:05.842Z,20.67
2023-02-12T05:02:39.395Z,21.63
2023-02-12T05:05:10.517Z,20.53
2023-02-12T05:07:42.992Z,19.60
2023-02-12T05:10:16.039Z,21.50
2023-02-12T05:12:48.605Z,20.47
2023-02-12T05:15:18.898Z,19.67
2023-02-12T05:17:48.981Z,21.17
2023-02-12T05:20:19.603Z,19.77
2023-02-12T05:22:53.987Z,19.40
2023-02-12T05:25:26.755Z,19.83
2023-02-12T05:27:57.455Z,19.10
2023-02-12T05:30:27.618Z,20.03
2023-02-12T05:32:57.743Z,19.00
2023-02-12T05:35:28.993Z,18.90
2023-02-12T05:37:59.474Z,19.60
2023-02-12T05:40:32.196Z,20.40
2023-02-12T05:43:02.275Z,19.93
2023-02-12T05:45:32.586Z,20.47
2023-02-12T05:48:03.067Z,19.33
2023-02-12T05:50:33.183Z,20.13
2023-02-12T05:53:03.412Z,20.37
2023-02-12T05:55:36.066Z,20.73
2023-02-12T05:58:06.146Z,20.23
2023-02-12T06:00:36.410Z,19.40
2023-02-12T06:03:06.676Z,20.10
2023-02-12T06:05:36.759Z,19.97
2023-02-12T06:08:09.744Z,22.63
2023-02-12T06:10:52.154Z,21.23
2023-02-12T06:13:22.227Z,20.57
2023-02-12T06:15:52.291Z,21.80
2023-02-12T06:18:22.362Z,22.70
2023-02-12T06:20:57.252Z,21.23
2023-02-12T06:23:30.364Z,21.77
2023-02-12T06:26:02.996Z,22.67
2023-02-12T06:28:33.147Z,20.97
2023-02-12T06:31:03.494Z,23.17
2023-02-12T06:33:36.094Z,20.70
2023-02-12T06:36:07.917Z,21.60
2023-02-12T06:38:38.302Z,20.37
2023-02-12T06:41:11.096Z,19.87
2023-02-12T06:43:41.327Z,19.93
2023-02-12T06:46:12.705Z,20.33
2023-02-12T06:48:43.090Z,20.57
2023-02-12T06:51:17.497Z,20.33
2023-02-12T06:53:48.547Z,18.67
2023-02-12T06:56:23.549Z,20.27
2023-02-12T06:58:59.591Z,19.87
2023-02-12T07:01:32.666Z,20.90
2023-02-12T07:04:05.542Z,19.70
2023-02-12T07:06:38.809Z,20.53
2023-02-12T07:09:09.011Z,21.47
2023-02-12T07:11:41.921Z,19.90
2023-02-12T07:14:18.714Z,20.57
2023-02-12T07:16:48.851Z,21.63
2023-02-12T07:19:19.258Z,21.37
2023-02-12T07:21:49.426Z,19.97
2023-02-12T07:24:20.519Z,20.53
2023-02-12T07:26:53.247Z,24.83
2023-02-12T07:29:23.368Z,22.73
2023-02-12T07:31:53.519Z,23.53
2023-02-12T07:34:25.769Z,22.93
2023-02-12T07:36:55.901Z,23.67
2023-02-12T07:39:27.283Z,21.30
2023-02-12T07:42:00.354Z,20.73
2023-02-12T07:44:31.502Z,19.37
2023-02-12T07:47:03.155Z,19.90
2023-02-12T07:49:33.183Z,19.43
2023-02-12T07:52:03.334Z,23.43
2023-02-12T07:54:33.390Z,18.07
2023-02-12T07:57:06.070Z,19.07
2023-02-12T07:59:38.215Z,17.90
2023-02-12T08:02:08.277Z,19.77
2023-02-12T08:04:38.447Z,20.53
2023-02-12T08:07:08.606Z,18.83
2023-02-12T08:09:40.231Z,19.77
2023-02-12T08:12:13.164Z,20.00
2023-02-12T08:14:43.766Z,21.20
2023-02-12T08:17:16.797Z,21.67
2023-02-12T08:19:46.821Z,22.57
2023-02-12T08:22:16.939Z,22.33
2023-02-12T08:24:46.998Z,22.33
2023-02-12T08:27:19.709Z,22.10
2023-02-12T08:29:49.964Z,21.27
2023-02-12T08:32:20.048Z,22.93
2023-02-12T08:34:50.114Z,23.87
2023-02-12T08:37:20.198Z,24.97
2023-02-12T08:39:52.202Z,25.47
2023-02-12T08:42:26.328Z,25.63
2023-02-12T08:44:56.368Z,24.97
2023-02-12T08:47:26.461Z,25.13
2023-02-12T08:49:56.517Z,24.50
2023-02-12T08:52:26.607Z,24.00
2023-02-12T08:54:56.808Z,25.15
2023-02-12T08:57:29.496Z,26.75
2023-02-12T08:59:59.534Z,25.08
2023-02-12T09:02:29.649Z,25.25
2023-02-12T09:04:59.734Z,25.58
2023-02-12T09:07:29.898Z,26.88
2023-02-12T09:09:59.927Z,26.45
2023-02-12T09:12:32.643Z,25.25
2023-02-12T09:15:02.902Z,26.33
2023-02-12T09:17:33.452Z,26.63
2023-02-12T09:20:06.487Z,28.02
2023-02-12T09:22:38.276Z,29.00
2023-02-12T09:25:11.322Z,28.80
2023-02-12T09:27:44.031Z,28.48
2023-02-12T09:30:17.046Z,27.58
2023-02-12T09:32:47.184Z,28.83
2023-02-12T09:35:18.580Z,27.88
2023-02-12T09:37:48.698Z,30.45
2023-02-12T09:40:24.809Z,31.00
2023-02-12T09:43:21.650Z,33.15
2023-02-12T09:46:07.538Z,33.88
2023-02-12T09:49:03.474Z,31.63
2023-02-12T09:51:35.095Z,33.15
2023-02-12T09:54:13.504Z,36.10
2023-02-12T09:56:49.401Z,35.45
2023-02-12T09:59:38.214Z,34.47
2023-02-12T10:02:17.212Z,34.45
2023-02-12T10:05:00.617Z,36.65
2023-02-12T10:07:56.473Z,40.05
2023-02-12T10:10:47.401Z,35.17
2023-02-12T10:13:34.354Z,33.22
2023-02-12T10:16:17.881Z,38.85
2023-02-12T10:19:23.241Z,37.17
2023-02-12T10:22:13.534Z,40.03
2023-02-12T10:25:05.974Z,42.25
2023-02-12T10:27:44.061Z,41.83
2023-02-12T10:30:26.716Z,40.08
2023-02-12T10:33:09.771Z,40.35
2023-02-12T10:35:47.054Z,40.60
2023-02-12T10:38:26.484Z,40.25
2023-02-12T10:41:05.350Z,38.20
2023-02-12T10:43:36.686Z,39.40
2023-02-12T10:46:08.140Z,37.47
2023-02-12T10:48:49.781Z,35.40
2023-02-12T10:51:49.494Z,35.15
2023-02-12T10:54:44.737Z,34.30
2023-02-12T10:57:20.969Z,31.83
2023-02-12T10:59:57.332Z,32.53
2023-02-12T11:02:32.476Z,32.67
2023-02-12T11:05:27.878Z,32.15
2023-02-12T11:07:58.330Z,31.15
2023-02-12T11:10:37.343Z,33.70
2023-02-12T11:13:08.495Z,34.78
2023-02-12T11:15:51.123Z,30.05
2023-02-12T11:18:28.313Z,40.95
2023-02-12T11:21:04.853Z,32.00
2023-02-12T11:23:38.407Z,49.22
2023-02-12T11:26:26.292Z,34.35
2023-02-12T11:28:59.593Z,31.85
2023-02-12T11:31:32.484Z,33.53
2023-02-12T11:34:19.858Z,29.73
2023-02-12T11:36:56.094Z,36.05
2023-02-12T11:39:32.517Z,30.52
2023-02-12T11:42:17.122Z,34.05
2023-02-12T11:44:55.363Z,34.10
2023-02-12T11:47:30.018Z,32.15
2023-02-12T11:50:11.839Z,30.85
2023-02-12T11:52:45.103Z,30.92
2023-02-12T11:55:28.108Z,29.42
2023-02-12T11:58:08.250Z,24.15
2023-02-12T12:00:48.604Z,23.20
2023-02-12T12:03:27.924Z,24.23
2023-02-12T12:06:07.718Z,24.13
2023-02-12T12:08:48.346Z,27.02
2023-02-12T12:11:24.594Z,28.02
2023-02-12T12:14:04.384Z,32.70
2023-02-12T12:16:53.489Z,34.17
2023-02-12T12:19:51.381Z,31.40
2023-02-12T12:22:38.233Z,27.17
2023-02-12T12:25:23.205Z,30.98
2023-02-12T12:28:13.623Z,24.00
2023-02-12T12:31:06.044Z,25.10
2023-02-12T12:33:44.285Z,25.63
2023-02-12T12:37:17.459Z,26.30
2023-02-12T12:40:19.434Z,21.85
2023-02-12T12:43:23.276Z,24.33
2023-02-12T12:46:27.921Z,23.35
2023-02-12T12:49:50.827Z,25.52
2023-02-12T12:52:48.285Z,22.17
2023-02-12T12:55:59.569Z,23.33
2023-02-12T12:58:55.535Z,24.67
2023-02-12T13:01:57.484Z,22.00
2023-02-12T13:05:07.026Z,22.35
2023-02-12T13:07:54.076Z,25.08
2023-02-12T13:10:39.513Z,27.75
2023-02-12T13:13:23.330Z,27.50
2023-02-12T13:16:12.160Z,25.98
2023-02-12T13:18:59.004Z,29.05
2023-02-12T13:21:44.381Z,27.17
2023-02-12T13:24:30.680Z,25.52
2023-02-12T13:27:05.069Z,26.63
2023-02-12T13:29:43.151Z,28.98
2023-02-12T13:32:26.868Z,28.63
2023-02-12T13:35:00.463Z,24.00
2023-02-12T13:37:45.269Z,30.98
2023-02-12T13:40:21.825Z,23.80
2023-02-12T13:43:02.524Z,22.67
2023-02-12T13:46:04.760Z,22.95
2023-02-12T13:48:56.023Z,23.30
2023-02-12T13:51:42.385Z,22.38
2023-02-12T13:54:48.813Z,22.40
2023-02-12T13:57:22.381Z,22.23
2023-02-12T13:59:53.935Z,23.40
2023-02-12T14:02:47.941Z,21.15
2023-02-12T14:05:36.327Z,22.45
2023-02-12T14:08:28.703Z,21.23
2023-02-12T14:11:10.547Z,20.15
2023-02-12T14:13:56.601Z,19.27
2023-02-12T14:16:43.461Z,19.45
2023-02-12T14:19:45.623Z,20.13
2023-02-12T14:23:14.570Z,21.30
2023-02-12T14:25:52.067Z,19.05
2023-02-12T14:28:34.397Z,19.15
2023-02-12T14:31:35.618Z,19.42
2023-02-12T14:34:44.750Z,19.67
2023-02-12T14:37:39.324Z,21.63
2023-02-12T14:40:42.273Z,19.85
2023-02-12T14:43:56.249Z,21.40
2023-02-12T14:46:50.095Z,22.83
2023-02-12T14:49:27.766Z,22.73
2023-02-12T14:52:05.068Z,22.35
2023-02-12T14:54:44.135Z,23.13
2023-02-12T14:57:29.335Z,22.83
2023-02-12T15:00:21.026Z,22.75
2023-02-12T15:02:58.479Z,23.88
2023-02-12T15:05:34.185Z,22.95
2023-02-12T15:08:12.105Z,21.73
2023-02-12T15:10:55.450Z,22.75
2023-02-12T15:13:34.220Z,23.17
2023-02-12T15:16:16.065Z,23.05
2023-02-12T15:18:57.647Z,37.88
2023-02-12T15:21:31.608Z,48.65
2023-02-12T15:24:08.504Z,36.42
2023-02-12T15:26:47.737Z,24.60
2023-02-12T15:29:32.635Z,36.28
2023-02-12T15:32:08.027Z,25.75
2023-02-12T15:34:43.487Z,44.97
2023-02-12T15:37:25.365Z,38.50
2023-02-12T15:40:03.740Z,24.85
2023-02-12T15:42:42.775Z,23.02
2023-02-12T15:45:27.538Z,23.13
2023-02-12T15:48:13.537Z,20.98
2023-02-12T15:50:59.730Z,20.25
2023-02-12T15:53:33.153Z,20.33
2023-02-12T15:56:05.564Z,20.40
2023-02-12T15:58:46.180Z,18.98
2023-02-12T16:01:25.768Z,20.98
2023-02-12T16:03:59.852Z,21.05
2023-02-12T16:06:35.448Z,23.70
2023-02-12T16:09:10.785Z,23.25
2023-02-12T16:11:41.415Z,24.58
2023-02-12T16:14:26.348Z,21.48
2023-02-12T16:17:01.396Z,22.80
2023-02-12T16:19:37.113Z,20.55
2023-02-12T16:22:19.956Z,20.58
2023-02-12T16:24:54.507Z,21.77
2023-02-12T16:27:28.488Z,20.70
2023-02-12T16:30:08.733Z,19.38
2023-02-12T16:32:42.043Z,19.40
2023-02-12T16:35:34.358Z,18.27
2023-02-12T16:38:41.971Z,19.95
2023-02-12T16:41:27.099Z,19.35
2023-02-12T16:44:31.753Z,18.88
2023-02-12T16:47:25.758Z,20.63
2023-02-12T16:50:05.592Z,20.20
2023-02-12T16:52:41.822Z,18.17
2023-02-12T16:55:20.839Z,18.73
2023-02-12T16:57:52.334Z,21.65
2023-02-12T17:00:23.995Z,21.10
2023-02-12T17:02:58.649Z,24.42
2023-02-12T17:05:28.740Z,21.05
2023-02-12T17:07:59.126Z,17.60
2023-02-12T17:10:29.306Z,17.95
2023-02-12T17:12:59.579Z,18.77
2023-02-12T17:15:38.195Z,19.67
2023-02-12T17:18:11.435Z,18.98
2023-02-12T17:20:41.890Z,18.67
2023-02-12T17:23:15.520Z,18.40
2023-02-12T17:25:45.619Z,19.90
2023-02-12T17:28:15.728Z,19.88
2023-02-12T17:30:45.853Z,19.92
2023-02-12T17:33:22.719Z,25.25
2023-02-12T17:35:53.019Z,26.45
2023-02-12T17:38:25.402Z,26.35
2023-02-12T17:40:56.657Z,30.33
2023-02-12T17:43:27.045Z,24.52
2023-02-12T17:45:57.340Z,23.08
2023-02-12T17:48:32.628Z,23.15
2023-02-12T17:51:02.721Z,26.50
2023-02-12T17:53:32.764Z,26.30
2023-02-12T17:56:02.907Z,24.55
2023-02-12T17:58:33.111Z,25.85
2023-02-12T18:01:08.698Z,25.17
2023-02-12T18:03:42.049Z,29.25
2023-02-12T18:06:16.346Z,28.05
2023-02-12T18:08:46.712Z,29.33
2023-02-12T18:11:19.025Z,23.33
2023-02-12T18:13:57.164Z,22.75
2023-02-12T18:16:29.629Z,22.23
2023-02-12T18:19:06.541Z,21.80
2023-02-12T18:21:37.281Z,21.77
2023-02-12T18:24:08.808Z,25.63
2023-02-12T18:26:38.991Z,21.38
2023-02-12T18:29:09.163Z,36.47
2023-02-12T18:31:39.571Z,20.75
2023-02-12T18:34:12.385Z,21.33
2023-02-12T18:36:42.529Z,22.02
2023-02-12T18:39:12.597Z,21.42
2023-02-12T18:41:42.986Z,25.70
2023-02-12T18:44:13.186Z,28.35
2023-02-12T18:46:44.526Z,33.03
2023-02-12T18:49:18.049Z,41.27
2023-02-12T18:51:48.133Z,44.10
2023-02-12T18:54:18.521Z,36.95
2023-02-12T18:56:52.256Z,29.63
2023-02-12T18:59:26.913Z,19.63
2023-02-12T19:01:57.908Z,17.63
2023-02-12T19:04:30.987Z,14.30
2023-02-12T19:07:01.000Z,14.67
2023-02-12T19:09:31.044Z,13.40
2023-02-12T19:12:11.072Z,12.90
2023-02-12T19:14:41.206Z,15.00
2023-02-12T19:17:11.272Z,13.67
2023-02-12T19:19:43.988Z,11.38
2023-02-12T19:22:14.212Z,34.47
2023-02-12T19:24:46.944Z,12.63
2023-02-12T19:27:17.972Z,12.67
2023-02-12T19:29:48.251Z,13.90
2023-02-12T19:32:18.410Z,13.27
2023-02-12T19:34:51.281Z,13.87
2023-02-12T19:37:21.373Z,11.60
2023-02-12T19:39:51.556Z,10.10
2023-02-12T19:42:21.742Z,10.07
2023-02-12T19:44:52.110Z,10.20
2023-02-12T19:47:22.269Z,11.83
2023-02-12T19:49:55.015Z,8.87
2023-02-12T19:52:25.094Z,7.83
2023-02-12T19:54:55.572Z,8.77
2023-02-12T19:57:25.638Z,9.23
2023-02-12T19:59:55.765Z,8.17
2023-02-12T20:02:25.868Z,7.37
2023-02-12T20:05:01.097Z,9.37
2023-02-12T20:07:31.149Z,7.00
2023-02-12T20:10:03.767Z,7.90
2023-02-12T20:12:33.847Z,7.13
2023-02-12T20:15:04.318Z,6.87
2023-02-12T20:17:34.464Z,6.97
2023-02-12T20:20:10.310Z,6.73
2023-02-12T20:22:40.464Z,7.60
2023-02-12T20:25:11.252Z,7.40
2023-02-12T20:27:44.289Z,7.27
2023-02-12T20:30:18.596Z,7.40
2023-02-12T20:32:49.480Z,8.27
2023-02-12T20:35:22.144Z,7.90
2023-02-12T20:37:52.201Z,8.47
2023-02-12T20:40:22.531Z,8.33
2023-02-12T20:42:52.614Z,8.10
2023-02-12T20:45:25.064Z,7.77
2023-02-12T20:47:55.267Z,7.07
2023-02-12T20:50:28.046Z,9.17
2023-02-12T20:52:58.305Z,7.93
2023-02-12T20:55:28.426Z,7.57
2023-02-12T20:57:58.536Z,6.80
2023-02-12T21:00:28.734Z,7.50
2023-02-12T21:03:01.482Z,6.33
2023-02-12T21:05:34.330Z,7.17
2023-02-12T21:08:04.411Z,7.30
2023-02-12T21:10:35.248Z,6.47
2023-02-12T21:13:06.714Z,6.57
2023-02-12T21:15:36.938Z,6.67
2023-02-12T21:18:07.383Z,6.07
2023-02-12T21:20:40.012Z,6.97
2023-02-12T21:23:10.113Z,6.73
2023-02-12T21:25:40.145Z,6.30
2023-02-12T21:28:10.388Z,5.97
2023-02-12T21:30:40.433Z,5.53
2023-02-12T21:33:10.681Z,6.43
2023-02-12T21:35:43.406Z,6.00
2023-02-12T21:38:13.492Z,6.97
2023-02-12T21:40:43.675Z,6.13
2023-02-12T21:43:13.836Z,6.47
2023-02-12T21:45:53.367Z,6.47
2023-02-12T21:48:23.521Z,6.60
2023-02-12T21:50:56.468Z,6.13
2023-02-12T21:53:27.615Z,6.77
2023-02-12T21:55:58.231Z,6.43
2023-02-12T21:58:28.712Z,6.07
2023-02-12T22:00:59.224Z,5.73
2023-02-12T22:03:32.071Z,5.97
2023-02-12T22:06:08.826Z,6.03
2023-02-12T22:08:39.829Z,6.13
2023-02-12T22:11:13.437Z,6.20
2023-02-12T22:13:44.655Z,6.30
2023-02-12T22:16:19.064Z,6.40
2023-02-12T22:18:50.737Z,6.50
2023-02-12T22:21:24.044Z,6.43
2023-02-12T22:23:55.183Z,6.77
2023-02-12T22:26:28.640Z,7.60
2023-02-12T22:29:01.255Z,7.30
2023-02-12T22:31:34.124Z,6.83
2023-02-12T22:34:08.275Z,6.87
2023-02-12T22:36:43.020Z,7.63
2023-02-12T22:39:15.442Z,8.07
2023-02-12T22:41:45.559Z,8.70
2023-02-12T22:44:18.912Z,8.70
2023-02-12T22:46:51.353Z,8.97
2023-02-12T22:49:21.737Z,8.67
2023-02-12T22:51:54.440Z,9.03
2023-02-12T22:54:27.637Z,9.83
2023-02-12T22:56:57.680Z,9.67
2023-02-12T22:59:27.974Z,9.97
2023-02-12T23:01:59.275Z,10.77
2023-02-12T23:04:29.383Z,11.03
2023-02-12T23:07:02.085Z,11.40
2023-02-12T23:09:32.631Z,11.13
2023-02-12T23:12:07.523Z,11.13
2023-02-12T23:14:38.246Z,11.87
2023-02-12T23:17:08.362Z,12.17
2023-02-12T23:19:38.432Z,12.13
2023-02-12T23:22:11.141Z,11.37
2023-02-12T23:24:41.279Z,12.43
2023-02-12T23:27:12.928Z,12.07
2023-02-12T23:29:45.621Z,12.37
2023-02-12T23:32:15.838Z,13.00
2023-02-12T23:34:45.914Z,13.57
2023-02-12T23:37:20.777Z,12.17
2023-02-12T23:39:50.994Z,11.97
2023-02-12T23:42:21.082Z,12.63
2023-02-12T23:44:51.198Z,12.97
2023-02-12T23:47:21.260Z,13.33
2023-02-12T23:49:51.306Z,13.53
2023-02-12T23:52:23.969Z,12.57
2023-02-12T23:54:54.193Z,12.77
2023-02-12T23:57:24.246Z,13.37
2023-02-12T23:59:56.479Z,13.67
